createdAt,value
2023-04-25T00:00:42.781Z,91.87
2023-04-25T00:03:45.054Z,91.83
2023-04-25T00:06:47.568Z,91.83
2023-04-25T00:09:49.422Z,91.67
2023-04-25T00:12:51.288Z,91.31
2023-04-25T00:15:57.633Z,91.46
2023-04-25T00:18:59.760Z,90.97
2023-04-25T00:22:02.197Z,90.81
2023-04-25T00:25:06.322Z,90.17
2023-04-25T00:28:08.116Z,89.33
2023-04-25T00:31:10.015Z,89.18
2023-04-25T00:34:12.003Z,88.56
2023-04-25T00:37:13.869Z,88.11
2023-04-25T00:40:15.637Z,87.73
2023-04-25T00:43:17.446Z,87.48
2023-04-25T00:46:19.322Z,87.32
2023-04-25T00:49:21.222Z,87.56
2023-04-25T00:52:23.539Z,87.55
2023-04-25T00:55:25.323Z,87.32
2023-04-25T00:58:27.343Z,87.87
2023-04-25T01:01:29.426Z,88.01
2023-04-25T01:04:31.402Z,88.25
2023-04-25T01:07:33.302Z,88.51
2023-04-25T01:10:35.413Z,88.67
2023-04-25T01:13:37.608Z,88.58
2023-04-25T01:16:39.571Z,88.81
2023-04-25T01:19:41.770Z,88.98
2023-04-25T01:22:44.441Z,88.83
2023-04-25T01:25:46.606Z,88.82
2023-04-25T01:28:48.494Z,89.04
2023-04-25T01:31:51.002Z,89.39
2023-04-25T01:34:52.868Z,89.27
2023-04-25T01:37:54.809Z,89.75
2023-04-25T01:40:57.140Z,89.54
2023-04-25T01:43:59.185Z,89.57
2023-04-25T01:47:01.138Z,89.25
2023-04-25T01:50:05.367Z,89.37
2023-04-25T01:53:07.759Z,89.41
2023-04-25T01:56:09.604Z,89.59
2023-04-25T01:59:11.862Z,89.63
2023-04-25T02:02:13.760Z,89.53
2023-04-25T02:05:15.650Z,89.50
2023-04-25T02:08:18.249Z,89.53
2023-04-25T02:11:20.179Z,89.45
2023-04-25T02:14:22.151Z,89.90
2023-04-25T02:17:24.051Z,89.73
2023-04-25T02:20:26.220Z,89.60
2023-04-25T02:23:28.249Z,89.47
2023-04-25T02:26:31.040Z,89.31
2023-04-25T02:29:32.910Z,89.47
2023-04-25T02:32:35.349Z,89.15
2023-04-25T02:35:37.314Z,89.00
2023-04-25T02:38:39.463Z,88.57
2023-04-25T02:41:41.441Z,87.83
2023-04-25T02:44:43.516Z,86.52
2023-04-25T02:47:45.644Z,85.54
2023-04-25T02:50:47.520Z,83.85
2023-04-25T02:53:49.552Z,84.07
2023-04-25T02:56:51.508Z,83.26
2023-04-25T02:59:53.318Z,84.01
2023-04-25T03:02:55.383Z,84.49
2023-04-25T03:05:57.309Z,85.01
2023-04-25T03:08:59.272Z,85.08
2023-04-25T03:12:01.381Z,85.85
2023-04-25T03:15:04.071Z,86.49
2023-04-25T03:18:05.961Z,86.99
2023-04-25T03:21:07.928Z,87.74
2023-04-25T03:24:12.059Z,88.48
2023-04-25T03:27:14.066Z,88.70
2023-04-25T03:30:15.957Z,88.80
2023-04-25T03:33:17.835Z,88.87
2023-04-25T03:36:19.638Z,88.67
2023-04-25T03:39:21.438Z,88.81
2023-04-25T03:42:23.964Z,89.40
2023-04-25T03:45:28.008Z,89.46
2023-04-25T03:48:29.803Z,89.86
2023-04-25T03:51:32.104Z,91.18
2023-04-25T03:54:33.917Z,90.77
2023-04-25T03:57:35.730Z,91.37
2023-04-25T04:00:37.953Z,91.81
2023-04-25T04:03:39.919Z,91.87
2023-04-25T04:06:43.249Z,91.96
2023-04-25T04:09:45.102Z,92.52
2023-04-25T04:12:46.952Z,92.82
2023-04-25T04:15:48.856Z,92.89
2023-04-25T04:18:50.939Z,92.92
2023-04-25T04:21:52.841Z,93.84
2023-04-25T04:24:55.302Z,94.19
2023-04-25T04:27:57.135Z,93.65
2023-04-25T04:30:58.998Z,94.05
2023-04-25T04:34:01.970Z,93.97
2023-04-25T04:37:03.866Z,93.61
2023-04-25T04:40:06.698Z,94.30
2023-04-25T04:43:11.966Z,94.24
2023-04-25T04:46:13.879Z,94.70
2023-04-25T04:49:16.049Z,95.19
2023-04-25T04:52:18.076Z,95.45
2023-04-25T04:55:20.233Z,96.00
2023-04-25T04:58:23.133Z,95.31
2023-04-25T05:01:26.128Z,96.16
2023-04-25T05:04:28.238Z,95.37
2023-04-25T05:07:30.141Z,95.29
2023-04-25T05:10:32.426Z,95.36
2023-04-25T05:13:34.206Z,95.79
2023-04-25T05:16:36.401Z,96.06
2023-04-25T05:19:39.058Z,97.47
2023-04-25T05:22:42.646Z,98.63
2023-04-25T05:25:44.470Z,98.58
2023-04-25T05:28:46.504Z,98.78
2023-04-25T05:31:49.387Z,99.67
2023-04-25T05:34:51.251Z,99.65
2023-04-25T05:37:53.063Z,99.24
2023-04-25T05:40:54.990Z,99.46
2023-04-25T05:43:58.130Z,99.86
2023-04-25T05:47:00.375Z,100.00
2023-04-25T05:50:02.386Z,99.85
2023-04-25T05:53:04.399Z,99.39
2023-04-25T05:56:06.277Z,99.54
2023-04-25T05:59:08.189Z,99.55
2023-04-25T06:02:10.363Z,99.73
2023-04-25T06:05:12.508Z,99.76
2023-04-25T06:08:14.690Z,100.00
2023-04-25T06:11:16.568Z,100.00
2023-04-25T06:14:18.656Z,100.00
2023-04-25T06:17:20.691Z,100.00
2023-04-25T06:20:25.024Z,100.00
2023-04-25T06:23:27.066Z,100.00
2023-04-25T06:26:29.013Z,100.00
2023-04-25T06:29:30.890Z,100.00
2023-04-25T06:32:33.539Z,100.00
2023-04-25T06:35:35.808Z,100.00
2023-04-25T06:38:37.843Z,100.00
2023-04-25T06:41:39.988Z,100.00
2023-04-25T06:44:42.000Z,100.00
2023-04-25T06:47:44.014Z,100.00
2023-04-25T06:50:45.918Z,100.00
2023-04-25T06:53:47.790Z,100.00
2023-04-25T06:56:50.055Z,100.00
2023-04-25T06:59:51.890Z,100.00
2023-04-25T07:02:54.039Z,100.00
2023-04-25T07:05:56.107Z,100.00
2023-04-25T07:08:57.945Z,100.00
2023-04-25T07:12:00.330Z,100.00
2023-04-25T07:15:06.834Z,100.00
2023-04-25T07:18:08.727Z,100.00
2023-04-25T07:21:10.711Z,100.00
2023-04-25T07:24:12.579Z,100.00
2023-04-25T07:27:14.363Z,100.00
2023-04-25T07:30:16.274Z,100.00
2023-04-25T07:33:18.222Z,100.00
2023-04-25T07:36:20.174Z,100.00
2023-04-25T07:39:22.246Z,100.00
2023-04-25T07:42:24.264Z,100.00
2023-04-25T07:45:26.217Z,100.00
2023-04-25T07:48:28.115Z,100.00
2023-04-25T07:51:29.906Z,99.45
2023-04-25T07:54:32.104Z,99.33
2023-04-25T07:57:33.886Z,97.40
2023-04-25T08:00:36.350Z,97.57
2023-04-25T08:03:38.533Z,96.54
2023-04-25T08:06:41.549Z,96.76
2023-04-25T08:09:43.480Z,96.45
2023-04-25T08:12:45.713Z,96.31
2023-04-25T08:15:47.728Z,95.36
2023-04-25T08:18:51.191Z,94.82
2023-04-25T08:21:53.268Z,94.73
2023-04-25T08:24:55.115Z,94.13
2023-04-25T08:27:58.206Z,92.79
2023-04-25T08:31:00.677Z,90.91
2023-04-25T08:34:02.757Z,90.56
2023-04-25T08:37:05.451Z,88.76
2023-04-25T08:40:08.259Z,88.24
2023-04-25T08:43:12.845Z,87.93
2023-04-25T08:46:18.801Z,87.04
2023-04-25T08:49:20.761Z,85.64
2023-04-25T08:52:24.408Z,84.98
2023-04-25T08:55:27.740Z,82.31
2023-04-25T08:58:30.407Z,83.36
2023-04-25T09:01:32.486Z,82.35
2023-04-25T09:04:34.417Z,81.24
2023-04-25T09:07:36.398Z,79.62
2023-04-25T09:10:39.033Z,79.00
2023-04-25T09:13:41.511Z,79.39
2023-04-25T09:16:58.490Z,78.84
2023-04-25T09:20:08.484Z,79.07
2023-04-25T09:23:10.551Z,77.94
2023-04-25T09:26:16.412Z,77.21
2023-04-25T09:29:18.452Z,76.87
2023-04-25T09:32:23.445Z,76.07
2023-04-25T09:35:27.409Z,75.99
2023-04-25T09:38:31.477Z,74.79
2023-04-25T09:41:33.667Z,74.76
2023-04-25T09:44:37.068Z,73.98
2023-04-25T09:47:39.926Z,72.74
2023-04-25T09:50:41.860Z,70.65
2023-04-25T09:53:47.270Z,69.52
2023-04-25T09:56:49.649Z,70.52
2023-04-25T09:59:55.916Z,69.49
2023-04-25T10:02:58.600Z,68.84
2023-04-25T10:06:02.011Z,69.75
2023-04-25T10:09:04.906Z,67.82
2023-04-25T10:12:08.580Z,69.05
2023-04-25T10:15:11.015Z,67.39
2023-04-25T10:18:13.559Z,68.37
2023-04-25T10:21:16.483Z,67.65
2023-04-25T10:24:19.116Z,67.37
2023-04-25T10:27:21.197Z,67.93
2023-04-25T10:30:23.110Z,65.69
2023-04-25T10:33:37.587Z,66.65
2023-04-25T10:36:39.462Z,67.89
2023-04-25T10:39:42.875Z,66.51
2023-04-25T10:42:44.786Z,67.32
2023-04-25T10:45:53.639Z,63.38
2023-04-25T10:48:57.667Z,63.02
2023-04-25T10:52:25.830Z,65.18
2023-04-25T10:55:27.847Z,61.52
2023-04-25T10:58:29.657Z,63.08
2023-04-25T11:01:45.241Z,63.48
2023-04-25T11:04:47.393Z,67.07
2023-04-25T11:08:06.347Z,63.28
2023-04-25T11:11:09.486Z,63.28
2023-04-25T11:14:11.562Z,63.97
2023-04-25T11:17:13.472Z,62.52
2023-04-25T11:20:16.573Z,60.28
2023-04-25T11:23:18.370Z,59.52
2023-04-25T11:26:21.362Z,59.00
2023-04-25T11:29:24.510Z,57.64
2023-04-25T11:32:27.840Z,59.54
2023-04-25T11:35:29.821Z,56.42
2023-04-25T11:38:31.720Z,56.45
2023-04-25T11:41:33.837Z,55.89
2023-04-25T11:44:35.882Z,57.75
2023-04-25T11:47:38.053Z,58.20
2023-04-25T11:50:41.215Z,55.33
2023-04-25T11:53:45.273Z,57.04
2023-04-25T11:56:47.422Z,57.83
2023-04-25T11:59:49.181Z,57.86
2023-04-25T12:02:55.972Z,56.25
2023-04-25T12:06:05.290Z,57.58
2023-04-25T12:09:09.881Z,56.66
2023-04-25T12:12:11.663Z,55.83
2023-04-25T12:15:26.911Z,55.36
2023-04-25T12:18:29.017Z,55.25
2023-04-25T12:21:31.331Z,54.98
2023-04-25T12:24:38.348Z,55.49
2023-04-25T12:27:45.007Z,57.32
2023-04-25T12:31:06.747Z,59.56
2023-04-25T12:34:08.989Z,59.18
2023-04-25T12:37:11.508Z,58.64
2023-04-25T12:40:14.405Z,59.58
2023-04-25T12:43:16.658Z,58.25
2023-04-25T12:46:18.639Z,56.83
2023-04-25T12:49:20.610Z,56.06
2023-04-25T12:52:22.495Z,54.02
2023-04-25T12:55:24.355Z,55.20
2023-04-25T12:58:26.762Z,53.27
2023-04-25T13:01:28.862Z,52.32
2023-04-25T13:04:30.881Z,51.92
2023-04-25T13:07:34.129Z,51.54
2023-04-25T13:10:39.504Z,49.08
2023-04-25T13:13:41.644Z,48.14
2023-04-25T13:16:44.027Z,48.64
2023-04-25T13:19:46.106Z,49.17
2023-04-25T13:22:48.156Z,46.60
2023-04-25T13:25:50.360Z,47.67
2023-04-25T13:28:52.345Z,47.43
2023-04-25T13:31:54.260Z,46.11
2023-04-25T13:34:56.986Z,47.59
2023-04-25T13:37:58.735Z,47.61
2023-04-25T13:41:01.907Z,47.56
2023-04-25T13:44:03.760Z,44.36
2023-04-25T13:47:05.665Z,45.04
2023-04-25T13:50:08.953Z,45.13
2023-04-25T13:53:10.927Z,45.27
2023-04-25T13:56:12.805Z,45.61
2023-04-25T13:59:14.719Z,46.21
2023-04-25T14:02:16.544Z,45.88
2023-04-25T14:05:18.515Z,46.19
2023-04-25T14:08:21.079Z,46.56
2023-04-25T14:11:22.883Z,46.08
2023-04-25T14:14:25.255Z,46.71
2023-04-25T14:17:27.011Z,44.40
2023-04-25T14:20:30.797Z,43.31
2023-04-25T14:23:32.661Z,43.00
2023-04-25T14:26:36.486Z,44.61
2023-04-25T14:29:38.427Z,43.48
2023-04-25T14:32:41.257Z,43.10
2023-04-25T14:35:44.226Z,43.25
2023-04-25T14:38:46.856Z,43.50
2023-04-25T14:41:48.740Z,43.51
2023-04-25T14:44:50.907Z,43.54
2023-04-25T14:47:52.824Z,43.42
2023-04-25T14:50:54.700Z,43.00
2023-04-25T14:53:59.152Z,43.12
2023-04-25T14:57:02.217Z,43.38
2023-04-25T15:00:08.032Z,42.62
2023-04-25T15:03:12.918Z,42.79
2023-04-25T15:06:15.150Z,43.65
2023-04-25T15:09:19.121Z,43.13
2023-04-25T15:12:21.486Z,42.21
2023-04-25T15:15:26.884Z,41.89
2023-04-25T15:18:29.116Z,42.04
2023-04-25T15:21:33.954Z,42.23
2023-04-25T15:24:36.305Z,41.32
2023-04-25T15:27:42.569Z,42.24
2023-04-25T15:30:44.792Z,42.78
2023-04-25T15:33:51.456Z,42.95
2023-04-25T15:36:54.053Z,44.38
2023-04-25T15:40:23.190Z,43.70
2023-04-25T15:43:25.353Z,44.37
2023-04-25T15:46:27.509Z,44.20
2023-04-25T15:49:29.655Z,44.98
2023-04-25T15:52:31.818Z,46.07
2023-04-25T15:55:34.922Z,45.62
2023-04-25T15:58:39.081Z,45.47
2023-04-25T16:01:41.053Z,45.03
2023-04-25T16:04:43.825Z,45.49
2023-04-25T16:07:46.910Z,45.26
2023-04-25T16:10:49.365Z,46.21
2023-04-25T16:13:51.756Z,47.00
2023-04-25T16:16:54.003Z,47.30
2023-04-25T16:19:56.612Z,47.21
2023-04-25T16:22:58.652Z,48.39
2023-04-25T16:26:00.688Z,48.37
2023-04-25T16:29:06.707Z,48.89
2023-04-25T16:32:08.584Z,49.42
2023-04-25T16:35:10.349Z,50.78
2023-04-25T16:38:12.403Z,53.80
2023-04-25T16:41:14.726Z,55.01
2023-04-25T16:44:17.009Z,55.87
2023-04-25T16:47:20.369Z,56.83
2023-04-25T16:50:22.938Z,57.76
2023-04-25T16:53:25.741Z,59.00
2023-04-25T16:56:27.675Z,58.47
2023-04-25T16:59:29.444Z,59.41
2023-04-25T17:02:31.502Z,59.86
2023-04-25T17:05:34.759Z,59.27
2023-04-25T17:08:36.971Z,59.00
2023-04-25T17:11:39.094Z,59.47
2023-04-25T17:14:41.094Z,59.60
2023-04-25T17:17:43.240Z,59.73
2023-04-25T17:20:45.291Z,59.61
2023-04-25T17:23:47.310Z,60.07
2023-04-25T17:26:49.220Z,59.08
2023-04-25T17:29:51.221Z,59.21
2023-04-25T17:32:53.312Z,59.70
2023-04-25T17:35:55.664Z,59.97
2023-04-25T17:38:57.686Z,60.26
2023-04-25T17:42:00.988Z,60.55
2023-04-25T17:45:03.174Z,60.78
2023-04-25T17:48:05.335Z,61.13
2023-04-25T17:51:07.681Z,61.61
2023-04-25T17:54:09.747Z,61.74
2023-04-25T17:57:14.970Z,61.93
2023-04-25T18:00:18.613Z,61.76
2023-04-25T18:03:21.976Z,62.09
2023-04-25T18:06:24.546Z,62.53
2023-04-25T18:09:27.146Z,62.96
2023-04-25T18:12:47.247Z,63.36
2023-04-25T18:15:52.469Z,63.62
2023-04-25T18:18:55.063Z,63.91
2023-04-25T18:21:58.601Z,63.91
2023-04-25T18:25:01.423Z,64.41
2023-04-25T18:28:03.310Z,65.10
2023-04-25T18:31:05.975Z,64.92
2023-04-25T18:34:09.105Z,65.65
2023-04-25T18:37:13.308Z,67.02
2023-04-25T18:40:16.359Z,66.79
2023-04-25T18:43:18.494Z,67.91
2023-04-25T18:46:22.555Z,68.41
2023-04-25T18:49:24.813Z,68.05
2023-04-25T18:52:26.946Z,69.56
2023-04-25T18:55:29.941Z,69.07
2023-04-25T18:58:35.213Z,69.90
2023-04-25T19:01:37.249Z,69.88
2023-04-25T19:04:39.729Z,70.46
2023-04-25T19:07:42.754Z,70.62
2023-04-25T19:10:45.330Z,70.82
2023-04-25T19:13:50.085Z,71.49
2023-04-25T19:16:52.887Z,71.82
2023-04-25T19:19:55.196Z,72.11
2023-04-25T19:22:57.489Z,71.99
2023-04-25T19:25:59.626Z,72.61
2023-04-25T19:29:06.059Z,73.14
2023-04-25T19:32:08.024Z,73.09
2023-04-25T19:35:11.593Z,73.61
2023-04-25T19:38:15.355Z,73.99
2023-04-25T19:41:20.584Z,73.81
2023-04-25T19:44:22.795Z,74.38
2023-04-25T19:47:27.176Z,74.35
2023-04-25T19:50:29.731Z,74.88
2023-04-25T19:53:32.073Z,74.33
2023-04-25T19:56:37.523Z,74.41
2023-04-25T19:59:40.310Z,75.04
2023-04-25T20:02:45.310Z,75.39
2023-04-25T20:05:48.154Z,74.71
2023-04-25T20:08:53.256Z,74.82
2023-04-25T20:11:55.111Z,74.88
2023-04-25T20:14:58.594Z,74.78
2023-04-25T20:18:00.704Z,75.19
2023-04-25T20:21:02.752Z,75.81
2023-04-25T20:24:05.159Z,76.39
2023-04-25T20:27:07.381Z,75.92
2023-04-25T20:30:10.731Z,76.10
2023-04-25T20:33:13.773Z,75.88
2023-04-25T20:36:15.796Z,75.76
2023-04-25T20:39:17.710Z,75.43
2023-04-25T20:42:19.547Z,75.28
2023-04-25T20:45:21.383Z,75.40
2023-04-25T20:48:23.172Z,75.50
2023-04-25T20:51:25.068Z,75.71
2023-04-25T20:54:27.138Z,75.95
2023-04-25T20:57:29.332Z,75.75
2023-04-25T21:00:31.270Z,75.48
2023-04-25T21:03:33.830Z,75.50
2023-04-25T21:06:35.850Z,75.59
2023-04-25T21:09:37.815Z,75.50
2023-04-25T21:12:41.052Z,75.80
2023-04-25T21:15:43.316Z,75.63
2023-04-25T21:18:45.155Z,75.75
2023-04-25T21:21:47.015Z,75.56
2023-04-25T21:24:50.765Z,75.32
2023-04-25T21:27:53.230Z,75.54
2023-04-25T21:30:55.038Z,75.13
2023-04-25T21:33:56.829Z,75.27
2023-04-25T21:36:58.610Z,75.51
2023-04-25T21:40:00.526Z,75.61
2023-04-25T21:43:02.401Z,76.05
2023-04-25T21:49:09.413Z,76.09
2023-04-25T21:52:11.361Z,76.63
2023-04-25T21:55:13.163Z,76.62
2023-04-25T21:58:14.994Z,77.07
2023-04-25T22:01:16.871Z,77.33
2023-04-25T22:04:18.922Z,77.42
2023-04-25T22:07:20.872Z,77.61
2023-04-25T22:10:23.282Z,78.02
2023-04-25T22:13:25.906Z,78.12
2023-04-25T22:16:29.202Z,77.99
2023-04-25T22:19:31.381Z,78.84
2023-04-25T22:22:34.126Z,79.70
2023-04-25T22:25:36.033Z,79.53
2023-04-25T22:28:38.832Z,79.33
2023-04-25T22:31:40.881Z,79.36
2023-04-25T22:34:42.776Z,79.79
2023-04-25T22:37:44.928Z,79.24
2023-04-25T22:40:48.132Z,79.19
2023-04-25T22:43:50.145Z,78.81
2023-04-25T22:46:51.869Z,78.49
2023-04-25T22:49:54.119Z,78.40
2023-04-25T22:52:55.959Z,78.19
2023-04-25T22:55:58.315Z,78.05
2023-04-25T22:59:00.351Z,78.13
2023-04-25T23:02:04.046Z,77.71
2023-04-25T23:05:07.148Z,77.54
2023-04-25T23:08:09.820Z,77.39
2023-04-25T23:11:11.710Z,77.37
2023-04-25T23:14:13.709Z,77.11
2023-04-25T23:17:15.489Z,77.06
2023-04-25T23:20:17.717Z,77.06
2023-04-25T23:23:19.490Z,76.89
2023-04-25T23:26:21.923Z,76.95
2023-04-25T23:29:23.761Z,76.86
2023-04-25T23:32:26.355Z,76.60
2023-04-25T23:35:28.295Z,76.02
2023-04-25T23:38:30.086Z,76.43
2023-04-25T23:41:32.130Z,76.22
2023-04-25T23:44:34.229Z,76.31
2023-04-25T23:47:36.255Z,76.30
2023-04-25T23:50:38.257Z,76.11
2023-04-25T23:53:40.046Z,76.03
2023-04-25T23:56:41.928Z,76.31
2023-04-25T23:59:47.037Z,76.98
